sensor_id;sensor_type;location;lat;lon;timestamp;P1;durP1;ratioP1;P2;durP2;ratioP2
74777;SDS011;63298;53.164;8.610;2023-04-24T00:00:00;0.85;;;0.85;;
74777;SDS011;63298;53.164;8.610;2023-04-24T00:02:27;0.88;;;0.88;;
74777;SDS011;63298;53.164;8.610;2023-04-24T00:04:52;4.95;;;0.90;;
74777;SDS011;63298;53.164;8.610;2023-04-24T00:07:17;1.45;;;1.00;;
74777;SDS011;63298;53.164;8.610;2023-04-24T00:09:43;0.70;;;0.70;;
74777;SDS011;63298;53.164;8.610;2023-04-24T00:12:09;1.00;;;0.80;;
74777;SDS011;63298;53.164;8.610;2023-04-24T00:14:34;1.10;;;1.00;;
74777;SDS011;63298;53.164;8.610;2023-04-24T00:17:00;7.75;;;0.95;;
74777;SDS011;63298;53.164;8.610;2023-04-24T00:19:26;1.10;;;1.00;;
74777;SDS011;63298;53.164;8.610;2023-04-24T00:21:51;0.82;;;0.82;;
74777;SDS011;63298;53.164;8.610;2023-04-24T00:24:17;1.10;;;1.00;;
74777;SDS011;63298;53.164;8.610;2023-04-24T00:26:42;2.10;;;1.00;;
74777;SDS011;63298;53.164;8.610;2023-04-24T00:29:07;1.55;;;1.45;;
74777;SDS011;63298;53.164;8.610;2023-04-24T00:31:33;1.40;;;1.23;;
74777;SDS011;63298;53.164;8.610;2023-04-24T00:33:58;0.80;;;0.80;;
74777;SDS011;63298;53.164;8.610;2023-04-24T00:36:23;2.15;;;0.98;;
74777;SDS011;63298;53.164;8.610;2023-04-24T00:38:49;2.35;;;1.50;;
74777;SDS011;63298;53.164;8.610;2023-04-24T00:41:14;1.10;;;1.10;;
74777;SDS011;63298;53.164;8.610;2023-04-24T00:43:39;0.90;;;0.90;;
74777;SDS011;63298;53.164;8.610;2023-04-24T00:46:05;0.90;;;0.90;;
74777;SDS011;63298;53.164;8.610;2023-04-24T00:48:30;1.00;;;1.00;;
74777;SDS011;63298;53.164;8.610;2023-04-24T00:50:56;1.23;;;1.23;;
74777;SDS011;63298;53.164;8.610;2023-04-24T00:53:22;1.10;;;1.10;;
74777;SDS011;63298;53.164;8.610;2023-04-24T00:55:47;1.27;;;1.20;;
74777;SDS011;63298;53.164;8.610;2023-04-24T00:58:12;1.48;;;1.08;;
74777;SDS011;63298;53.164;8.610;2023-04-24T01:00:38;0.90;;;0.90;;
74777;SDS011;63298;53.164;8.610;2023-04-24T01:03:04;1.10;;;1.10;;
74777;SDS011;63298;53.164;8.610;2023-04-24T01:05:30;1.33;;;0.70;;
74777;SDS011;63298;53.164;8.610;2023-04-24T01:07:56;0.77;;;0.77;;
74777;SDS011;63298;53.164;8.610;2023-04-24T01:10:22;0.98;;;0.98;;
74777;SDS011;63298;53.164;8.610;2023-04-24T01:12:49;0.65;;;0.65;;
74777;SDS011;63298;53.164;8.610;2023-04-24T01:15:15;1.50;;;0.85;;
74777;SDS011;63298;53.164;8.610;2023-04-24T01:17:40;0.70;;;0.70;;
74777;SDS011;63298;53.164;8.610;2023-04-24T01:20:05;0.82;;;0.82;;
74777;SDS011;63298;53.164;8.610;2023-04-24T01:22:33;0.60;;;0.60;;
74777;SDS011;63298;53.164;8.610;2023-04-24T01:24:58;0.85;;;0.85;;
74777;SDS011;63298;53.164;8.610;2023-04-24T01:27:24;0.90;;;0.90;;
74777;SDS011;63298;53.164;8.610;2023-04-24T01:29:49;0.80;;;0.80;;
74777;SDS011;63298;53.164;8.610;2023-04-24T01:32:14;0.80;;;0.80;;
74777;SDS011;63298;53.164;8.610;2023-04-24T01:34:40;0.90;;;0.90;;
74777;SDS011;63298;53.164;8.610;2023-04-24T01:37:06;0.88;;;0.88;;
74777;SDS011;63298;53.164;8.610;2023-04-24T01:39:32;2.03;;;0.93;;
74777;SDS011;63298;53.164;8.610;2023-04-24T01:41:57;3.45;;;0.80;;
74777;SDS011;63298;53.164;8.610;2023-04-24T01:44:22;0.80;;;0.80;;
74777;SDS011;63298;53.164;8.610;2023-04-24T01:46:48;0.82;;;0.82;;
74777;SDS011;63298;53.164;8.610;2023-04-24T01:49:13;0.85;;;0.85;;
74777;SDS011;63298;53.164;8.610;2023-04-24T01:51:39;0.70;;;0.70;;
74777;SDS011;63298;53.164;8.610;2023-04-24T01:54:04;1.45;;;1.00;;
74777;SDS011;63298;53.164;8.610;2023-04-24T01:56:29;0.90;;;0.90;;
74777;SDS011;63298;53.164;8.610;2023-04-24T01:58:55;1.23;;;1.00;;
74777;SDS011;63298;53.164;8.610;2023-04-24T02:01:21;1.75;;;0.68;;
74777;SDS011;63298;53.164;8.610;2023-04-24T02:03:49;2.50;;;0.82;;
74777;SDS011;63298;53.164;8.610;2023-04-24T02:06:14;0.98;;;0.98;;
74777;SDS011;63298;53.164;8.610;2023-04-24T02:08:39;1.95;;;0.70;;
74777;SDS011;63298;53.164;8.610;2023-04-24T02:11:05;0.90;;;0.90;;
74777;SDS011;63298;53.164;8.610;2023-04-24T02:13:30;0.80;;;0.80;;
74777;SDS011;63298;53.164;8.610;2023-04-24T02:15:55;2.00;;;0.85;;
74777;SDS011;63298;53.164;8.610;2023-04-24T02:18:20;1.00;;;1.00;;
74777;SDS011;63298;53.164;8.610;2023-04-24T02:20:46;1.15;;;1.10;;
74777;SDS011;63298;53.164;8.610;2023-04-24T02:23:11;1.15;;;0.85;;
74777;SDS011;63298;53.164;8.610;2023-04-24T02:25:36;1.00;;;1.00;;
74777;SDS011;63298;53.164;8.610;2023-04-24T02:28:02;1.55;;;1.15;;
74777;SDS011;63298;53.164;8.610;2023-04-24T02:30:27;0.90;;;0.90;;
74777;SDS011;63298;53.164;8.610;2023-04-24T02:32:53;0.90;;;0.90;;
74777;SDS011;63298;53.164;8.610;2023-04-24T02:35:19;0.98;;;0.98;;
74777;SDS011;63298;53.164;8.610;2023-04-24T02:38:00;1.00;;;0.90;;
74777;SDS011;63298;53.164;8.610;2023-04-24T02:40:25;0.95;;;0.80;;
74777;SDS011;63298;53.164;8.610;2023-04-24T02:42:51;1.00;;;1.00;;
74777;SDS011;63298;53.164;8.610;2023-04-24T02:45:16;0.95;;;0.95;;
74777;SDS011;63298;53.164;8.610;2023-04-24T02:47:41;1.30;;;1.30;;
74777;SDS011;63298;53.164;8.610;2023-04-24T02:50:07;1.02;;;1.02;;
74777;SDS011;63298;53.164;8.610;2023-04-24T02:52:33;1.30;;;1.17;;
74777;SDS011;63298;53.164;8.610;2023-04-24T02:54:58;1.17;;;1.05;;
74777;SDS011;63298;53.164;8.610;2023-04-24T02:57:25;1.30;;;1.27;;
74777;SDS011;63298;53.164;8.610;2023-04-24T02:59:50;1.35;;;1.35;;
74777;SDS011;63298;53.164;8.610;2023-04-24T03:02:15;1.80;;;1.70;;
74777;SDS011;63298;53.164;8.610;2023-04-24T03:04:41;1.98;;;1.88;;
74777;SDS011;63298;53.164;8.610;2023-04-24T03:07:07;1.85;;;1.75;;
74777;SDS011;63298;53.164;8.610;2023-04-24T03:09:32;1.98;;;1.73;;
74777;SDS011;63298;53.164;8.610;2023-04-24T03:11:58;3.53;;;1.88;;
74777;SDS011;63298;53.164;8.610;2023-04-24T03:14:24;4.00;;;1.88;;
74777;SDS011;63298;53.164;8.610;2023-04-24T03:16:49;2.17;;;2.00;;
74777;SDS011;63298;53.164;8.610;2023-04-24T03:19:15;2.15;;;2.00;;
74777;SDS011;63298;53.164;8.610;2023-04-24T03:21:41;5.78;;;2.03;;
74777;SDS011;63298;53.164;8.610;2023-04-24T03:24:09;2.30;;;2.10;;
74777;SDS011;63298;53.164;8.610;2023-04-24T03:26:35;3.45;;;2.05;;
74777;SDS011;63298;53.164;8.610;2023-04-24T03:29:00;2.13;;;2.03;;
74777;SDS011;63298;53.164;8.610;2023-04-24T03:31:27;2.35;;;2.15;;
74777;SDS011;63298;53.164;8.610;2023-04-24T03:33:52;3.33;;;2.13;;
74777;SDS011;63298;53.164;8.610;2023-04-24T03:36:18;2.58;;;2.30;;
74777;SDS011;63298;53.164;8.610;2023-04-24T03:38:43;2.53;;;2.33;;
74777;SDS011;63298;53.164;8.610;2023-04-24T03:41:09;2.63;;;2.42;;
74777;SDS011;63298;53.164;8.610;2023-04-24T03:43:34;2.67;;;2.47;;
74777;SDS011;63298;53.164;8.610;2023-04-24T03:46:00;2.10;;;2.00;;
74777;SDS011;63298;53.164;8.610;2023-04-24T03:48:26;2.05;;;1.95;;
74777;SDS011;63298;53.164;8.610;2023-04-24T03:50:51;4.40;;;2.28;;
74777;SDS011;63298;53.164;8.610;2023-04-24T03:53:17;2.47;;;2.28;;
74777;SDS011;63298;53.164;8.610;2023-04-24T03:55:42;2.63;;;2.35;;
74777;SDS011;63298;53.164;8.610;2023-04-24T03:58:08;2.25;;;2.05;;
74777;SDS011;63298;53.164;8.610;2023-04-24T04:00:33;2.53;;;2.33;;
74777;SDS011;63298;53.164;8.610;2023-04-24T04:02:58;2.33;;;2.22;;
74777;SDS011;63298;53.164;8.610;2023-04-24T04:05:24;2.77;;;2.57;;
74777;SDS011;63298;53.164;8.610;2023-04-24T04:07:49;2.50;;;2.30;;
74777;SDS011;63298;53.164;8.610;2023-04-24T04:10:14;2.40;;;2.20;;
74777;SDS011;63298;53.164;8.610;2023-04-24T04:12:39;2.70;;;2.30;;
74777;SDS011;63298;53.164;8.610;2023-04-24T04:15:05;3.13;;;2.58;;
74777;SDS011;63298;53.164;8.610;2023-04-24T04:17:31;2.67;;;2.47;;
74777;SDS011;63298;53.164;8.610;2023-04-24T04:19:56;2.58;;;2.38;;
74777;SDS011;63298;53.164;8.610;2023-04-24T04:22:21;4.65;;;2.75;;
74777;SDS011;63298;53.164;8.610;2023-04-24T04:24:47;4.53;;;2.72;;
74777;SDS011;63298;53.164;8.610;2023-04-24T04:27:12;3.15;;;2.53;;
74777;SDS011;63298;53.164;8.610;2023-04-24T04:29:37;2.70;;;2.53;;
74777;SDS011;63298;53.164;8.610;2023-04-24T04:32:03;2.88;;;2.67;;
74777;SDS011;63298;53.164;8.610;2023-04-24T04:34:28;2.90;;;2.72;;
74777;SDS011;63298;53.164;8.610;2023-04-24T04:36:53;3.10;;;2.80;;
74777;SDS011;63298;53.164;8.610;2023-04-24T04:39:19;3.45;;;2.50;;
74777;SDS011;63298;53.164;8.610;2023-04-24T04:41:44;3.83;;;2.40;;
74777;SDS011;63298;53.164;8.610;2023-04-24T04:44:09;2.50;;;2.33;;
74777;SDS011;63298;53.164;8.610;2023-04-24T04:46:35;3.50;;;2.47;;
74777;SDS011;63298;53.164;8.610;2023-04-24T04:49:00;3.42;;;2.65;;
74777;SDS011;63298;53.164;8.610;2023-04-24T04:51:27;2.65;;;2.45;;
74777;SDS011;63298;53.164;8.610;2023-04-24T04:53:52;2.58;;;2.38;;
74777;SDS011;63298;53.164;8.610;2023-04-24T04:56:18;2.70;;;2.50;;
74777;SDS011;63298;53.164;8.610;2023-04-24T04:58:43;3.13;;;2.30;;
74777;SDS011;63298;53.164;8.610;2023-04-24T05:01:09;2.47;;;2.28;;
74777;SDS011;63298;53.164;8.610;2023-04-24T05:03:34;2.20;;;2.10;;
74777;SDS011;63298;53.164;8.610;2023-04-24T05:05:59;2.60;;;2.17;;
74777;SDS011;63298;53.164;8.610;2023-04-24T05:08:25;3.25;;;2.20;;
74777;SDS011;63298;53.164;8.610;2023-04-24T05:10:50;5.13;;;2.30;;
74777;SDS011;63298;53.164;8.610;2023-04-24T05:13:15;3.83;;;2.53;;
74777;SDS011;63298;53.164;8.610;2023-04-24T05:15:40;4.53;;;2.45;;
74777;SDS011;63298;53.164;8.610;2023-04-24T05:18:06;2.47;;;2.28;;
74777;SDS011;63298;53.164;8.610;2023-04-24T05:20:31;2.60;;;2.40;;
74777;SDS011;63298;53.164;8.610;2023-04-24T05:22:56;2.20;;;2.00;;
74777;SDS011;63298;53.164;8.610;2023-04-24T05:25:22;2.80;;;2.33;;
74777;SDS011;63298;53.164;8.610;2023-04-24T05:27:47;2.70;;;2.50;;
74777;SDS011;63298;53.164;8.610;2023-04-24T05:30:12;4.18;;;2.50;;
74777;SDS011;63298;53.164;8.610;2023-04-24T05:32:38;8.32;;;2.60;;
74777;SDS011;63298;53.164;8.610;2023-04-24T05:35:03;5.67;;;2.70;;
74777;SDS011;63298;53.164;8.610;2023-04-24T05:37:29;3.08;;;2.75;;
74777;SDS011;63298;53.164;8.610;2023-04-24T05:39:54;3.25;;;2.53;;
74777;SDS011;63298;53.164;8.610;2023-04-24T05:42:19;2.97;;;2.67;;
74777;SDS011;63298;53.164;8.610;2023-04-24T05:44:45;6.05;;;3.20;;
74777;SDS011;63298;53.164;8.610;2023-04-24T05:47:10;2.67;;;2.47;;
74777;SDS011;63298;53.164;8.610;2023-04-24T05:49:35;6.13;;;2.45;;
74777;SDS011;63298;53.164;8.610;2023-04-24T05:52:01;2.83;;;2.47;;
74777;SDS011;63298;53.164;8.610;2023-04-24T05:54:26;5.70;;;3.00;;
74777;SDS011;63298;53.164;8.610;2023-04-24T05:56:51;7.93;;;2.70;;
74777;SDS011;63298;53.164;8.610;2023-04-24T05:59:16;3.58;;;3.03;;
74777;SDS011;63298;53.164;8.610;2023-04-24T06:01:42;2.80;;;2.47;;
74777;SDS011;63298;53.164;8.610;2023-04-24T06:04:07;3.17;;;2.78;;
74777;SDS011;63298;53.164;8.610;2023-04-24T06:06:32;3.75;;;2.80;;
74777;SDS011;63298;53.164;8.610;2023-04-24T06:08:58;3.20;;;2.67;;
74777;SDS011;63298;53.164;8.610;2023-04-24T06:11:23;6.35;;;2.92;;
74777;SDS011;63298;53.164;8.610;2023-04-24T06:13:48;3.00;;;2.70;;
74777;SDS011;63298;53.164;8.610;2023-04-24T06:16:14;4.13;;;2.80;;
74777;SDS011;63298;53.164;8.610;2023-04-24T06:18:39;3.63;;;3.17;;
74777;SDS011;63298;53.164;8.610;2023-04-24T06:21:04;4.40;;;3.03;;
74777;SDS011;63298;53.164;8.610;2023-04-24T06:23:30;4.15;;;2.97;;
74777;SDS011;63298;53.164;8.610;2023-04-24T06:25:55;3.38;;;2.85;;
74777;SDS011;63298;53.164;8.610;2023-04-24T06:28:20;3.45;;;2.88;;
74777;SDS011;63298;53.164;8.610;2023-04-24T06:30:46;3.67;;;2.92;;
74777;SDS011;63298;53.164;8.610;2023-04-24T06:33:11;4.72;;;3.15;;
74777;SDS011;63298;53.164;8.610;2023-04-24T06:35:36;4.55;;;3.38;;
74777;SDS011;63298;53.164;8.610;2023-04-24T06:38:02;4.68;;;2.88;;
74777;SDS011;63298;53.164;8.610;2023-04-24T06:40:27;3.22;;;2.92;;
74777;SDS011;63298;53.164;8.610;2023-04-24T06:42:52;4.38;;;3.33;;
74777;SDS011;63298;53.164;8.610;2023-04-24T06:45:18;4.18;;;3.22;;
74777;SDS011;63298;53.164;8.610;2023-04-24T06:47:43;5.68;;;3.30;;
74777;SDS011;63298;53.164;8.610;2023-04-24T06:50:09;5.53;;;3.58;;
74777;SDS011;63298;53.164;8.610;2023-04-24T06:52:34;5.03;;;4.03;;
74777;SDS011;63298;53.164;8.610;2023-04-24T06:55:00;6.43;;;3.80;;
74777;SDS011;63298;53.164;8.610;2023-04-24T06:57:29;5.18;;;4.00;;
74777;SDS011;63298;53.164;8.610;2023-04-24T06:59:55;4.70;;;3.70;;
74777;SDS011;63298;53.164;8.610;2023-04-24T07:02:20;4.47;;;3.58;;
74777;SDS011;63298;53.164;8.610;2023-04-24T07:04:46;4.78;;;3.67;;
74777;SDS011;63298;53.164;8.610;2023-04-24T07:07:11;4.43;;;3.88;;
74777;SDS011;63298;53.164;8.610;2023-04-24T07:09:37;5.65;;;3.90;;
74777;SDS011;63298;53.164;8.610;2023-04-24T07:12:02;6.03;;;3.92;;
74777;SDS011;63298;53.164;8.610;2023-04-24T07:14:28;6.43;;;4.32;;
74777;SDS011;63298;53.164;8.610;2023-04-24T07:16:53;7.67;;;4.23;;
74777;SDS011;63298;53.164;8.610;2023-04-24T07:19:18;5.50;;;4.30;;
74777;SDS011;63298;53.164;8.610;2023-04-24T07:21:44;4.15;;;3.75;;
74777;SDS011;63298;53.164;8.610;2023-04-24T07:24:09;5.90;;;3.80;;
74777;SDS011;63298;53.164;8.610;2023-04-24T07:26:34;4.70;;;3.70;;
74777;SDS011;63298;53.164;8.610;2023-04-24T07:29:00;4.82;;;4.03;;
74777;SDS011;63298;53.164;8.610;2023-04-24T07:31:25;5.85;;;3.88;;
74777;SDS011;63298;53.164;8.610;2023-04-24T07:33:50;5.25;;;3.70;;
74777;SDS011;63298;53.164;8.610;2023-04-24T07:36:16;11.25;;;3.97;;
74777;SDS011;63298;53.164;8.610;2023-04-24T07:38:47;8.15;;;4.60;;
74777;SDS011;63298;53.164;8.610;2023-04-24T07:41:13;6.15;;;4.20;;
74777;SDS011;63298;53.164;8.610;2023-04-24T07:43:39;5.65;;;4.32;;
74777;SDS011;63298;53.164;8.610;2023-04-24T07:46:04;7.32;;;4.22;;
74777;SDS011;63298;53.164;8.610;2023-04-24T07:48:31;5.15;;;3.95;;
74777;SDS011;63298;53.164;8.610;2023-04-24T07:50:56;4.47;;;3.80;;
74777;SDS011;63298;53.164;8.610;2023-04-24T07:53:21;6.18;;;3.83;;
74777;SDS011;63298;53.164;8.610;2023-04-24T07:55:46;4.85;;;3.60;;
74777;SDS011;63298;53.164;8.610;2023-04-24T07:58:12;6.03;;;3.63;;
74777;SDS011;63298;53.164;8.610;2023-04-24T08:00:37;6.32;;;4.05;;
74777;SDS011;63298;53.164;8.610;2023-04-24T08:03:03;9.32;;;3.78;;
74777;SDS011;63298;53.164;8.610;2023-04-24T08:05:28;5.32;;;3.67;;
74777;SDS011;63298;53.164;8.610;2023-04-24T08:07:53;5.93;;;3.70;;
74777;SDS011;63298;53.164;8.610;2023-04-24T08:10:20;5.10;;;3.42;;
74777;SDS011;63298;53.164;8.610;2023-04-24T08:12:46;4.68;;;3.53;;
74777;SDS011;63298;53.164;8.610;2023-04-24T08:15:11;4.30;;;3.37;;
74777;SDS011;63298;53.164;8.610;2023-04-24T08:17:36;4.32;;;3.30;;
74777;SDS011;63298;53.164;8.610;2023-04-24T08:20:02;5.75;;;3.50;;
74777;SDS011;63298;53.164;8.610;2023-04-24T08:22:28;7.55;;;4.10;;
74777;SDS011;63298;53.164;8.610;2023-04-24T08:24:53;7.38;;;3.42;;
74777;SDS011;63298;53.164;8.610;2023-04-24T08:27:19;6.22;;;4.10;;
74777;SDS011;63298;53.164;8.610;2023-04-24T08:29:45;6.22;;;4.00;;
74777;SDS011;63298;53.164;8.610;2023-04-24T08:32:10;4.30;;;3.70;;
74777;SDS011;63298;53.164;8.610;2023-04-24T08:34:35;6.35;;;3.75;;
74777;SDS011;63298;53.164;8.610;2023-04-24T08:37:01;4.45;;;3.88;;
74777;SDS011;63298;53.164;8.610;2023-04-24T08:39:27;5.72;;;3.90;;
74777;SDS011;63298;53.164;8.610;2023-04-24T08:41:52;5.38;;;3.90;;
74777;SDS011;63298;53.164;8.610;2023-04-24T08:44:18;4.97;;;4.25;;
74777;SDS011;63298;53.164;8.610;2023-04-24T08:46:44;5.82;;;3.85;;
74777;SDS011;63298;53.164;8.610;2023-04-24T08:49:10;8.15;;;4.78;;
74777;SDS011;63298;53.164;8.610;2023-04-24T08:51:37;4.47;;;3.55;;
74777;SDS011;63298;53.164;8.610;2023-04-24T08:54:03;7.47;;;4.57;;
74777;SDS011;63298;53.164;8.610;2023-04-24T08:56:29;4.88;;;3.97;;
74777;SDS011;63298;53.164;8.610;2023-04-24T08:58:58;5.43;;;4.00;;
74777;SDS011;63298;53.164;8.610;2023-04-24T09:01:23;4.65;;;4.00;;
74777;SDS011;63298;53.164;8.610;2023-04-24T09:03:50;5.03;;;3.80;;
74777;SDS011;63298;53.164;8.610;2023-04-24T09:06:18;6.90;;;4.10;;
74777;SDS011;63298;53.164;8.610;2023-04-24T09:08:45;6.75;;;3.75;;
74777;SDS011;63298;53.164;8.610;2023-04-24T09:11:12;5.22;;;3.42;;
74777;SDS011;63298;53.164;8.610;2023-04-24T09:13:38;4.22;;;3.47;;
74777;SDS011;63298;53.164;8.610;2023-04-24T09:16:04;5.43;;;3.50;;
74777;SDS011;63298;53.164;8.610;2023-04-24T09:18:29;6.57;;;4.13;;
74777;SDS011;63298;53.164;8.610;2023-04-24T09:23:23;6.28;;;4.25;;
74777;SDS011;63298;53.164;8.610;2023-04-24T09:25:53;6.38;;;4.15;;
74777;SDS011;63298;53.164;8.610;2023-04-24T09:28:20;4.72;;;3.60;;
74777;SDS011;63298;53.164;8.610;2023-04-24T09:31:01;4.97;;;3.72;;
74777;SDS011;63298;53.164;8.610;2023-04-24T09:36:28;8.88;;;3.85;;
74777;SDS011;63298;53.164;8.610;2023-04-24T09:39:00;5.47;;;3.80;;
74777;SDS011;63298;53.164;8.610;2023-04-24T09:41:27;4.47;;;3.55;;
74777;SDS011;63298;53.164;8.610;2023-04-24T09:43:53;6.63;;;3.65;;
74777;SDS011;63298;53.164;8.610;2023-04-24T09:46:19;5.40;;;3.33;;
74777;SDS011;63298;53.164;8.610;2023-04-24T09:48:45;4.00;;;3.47;;
74777;SDS011;63298;53.164;8.610;2023-04-24T09:51:10;4.60;;;3.38;;
74777;SDS011;63298;53.164;8.610;2023-04-24T09:53:37;5.72;;;3.55;;
74777;SDS011;63298;53.164;8.610;2023-04-24T09:56:03;3.97;;;3.53;;
74777;SDS011;63298;53.164;8.610;2023-04-24T09:58:32;6.68;;;3.42;;
74777;SDS011;63298;53.164;8.610;2023-04-24T10:01:00;4.78;;;2.92;;
74777;SDS011;63298;53.164;8.610;2023-04-24T10:03:25;5.97;;;3.10;;
74777;SDS011;63298;53.164;8.610;2023-04-24T10:05:51;3.45;;;3.15;;
74777;SDS011;63298;53.164;8.610;2023-04-24T10:08:17;4.20;;;3.08;;
74777;SDS011;63298;53.164;8.610;2023-04-24T10:10:44;4.57;;;3.63;;
74777;SDS011;63298;53.164;8.610;2023-04-24T10:13:11;6.68;;;4.35;;
74777;SDS011;63298;53.164;8.610;2023-04-24T10:15:38;7.00;;;5.28;;
74777;SDS011;63298;53.164;8.610;2023-04-24T10:18:05;7.25;;;5.57;;
74777;SDS011;63298;53.164;8.610;2023-04-24T10:20:30;6.30;;;5.70;;
74777;SDS011;63298;53.164;8.610;2023-04-24T10:22:56;9.05;;;6.53;;
74777;SDS011;63298;53.164;8.610;2023-04-24T10:25:23;7.53;;;5.90;;
74777;SDS011;63298;53.164;8.610;2023-04-24T10:27:50;7.05;;;5.22;;
74777;SDS011;63298;53.164;8.610;2023-04-24T10:30:16;5.25;;;4.30;;
74777;SDS011;63298;53.164;8.610;2023-04-24T10:32:43;8.40;;;4.50;;
74777;SDS011;63298;53.164;8.610;2023-04-24T10:35:09;5.45;;;4.07;;
74777;SDS011;63298;53.164;8.610;2023-04-24T10:37:37;7.00;;;4.75;;
74777;SDS011;63298;53.164;8.610;2023-04-24T10:40:05;4.70;;;4.28;;
74777;SDS011;63298;53.164;8.610;2023-04-24T10:42:32;8.35;;;4.43;;
74777;SDS011;63298;53.164;8.610;2023-04-24T10:44:57;4.80;;;4.15;;
74777;SDS011;63298;53.164;8.610;2023-04-24T10:47:23;5.35;;;4.18;;
74777;SDS011;63298;53.164;8.610;2023-04-24T10:49:50;4.93;;;3.67;;
74777;SDS011;63298;53.164;8.610;2023-04-24T10:52:16;6.40;;;4.20;;
74777;SDS011;63298;53.164;8.610;2023-04-24T10:54:42;5.18;;;4.57;;
74777;SDS011;63298;53.164;8.610;2023-04-24T10:59:44;5.53;;;4.25;;
74777;SDS011;63298;53.164;8.610;2023-04-24T11:02:10;5.57;;;4.93;;
74777;SDS011;63298;53.164;8.610;2023-04-24T11:04:35;6.57;;;5.57;;
74777;SDS011;63298;53.164;8.610;2023-04-24T11:07:02;8.20;;;5.93;;
74777;SDS011;63298;53.164;8.610;2023-04-24T11:09:29;6.80;;;5.20;;
74777;SDS011;63298;53.164;8.610;2023-04-24T11:12:03;8.27;;;6.18;;
74777;SDS011;63298;53.164;8.610;2023-04-24T11:17:29;7.65;;;6.03;;
74777;SDS011;63298;53.164;8.610;2023-04-24T11:20:00;6.40;;;5.57;;
74777;SDS011;63298;53.164;8.610;2023-04-24T11:22:33;8.23;;;5.75;;
74777;SDS011;63298;53.164;8.610;2023-04-24T11:24:59;11.77;;;5.82;;
74777;SDS011;63298;53.164;8.610;2023-04-24T11:27:25;6.45;;;5.45;;
74777;SDS011;63298;53.164;8.610;2023-04-24T11:34:49;11.73;;;5.40;;
74777;SDS011;63298;53.164;8.610;2023-04-24T11:37:16;6.90;;;5.47;;
74777;SDS011;63298;53.164;8.610;2023-04-24T11:39:41;5.88;;;4.68;;
74777;SDS011;63298;53.164;8.610;2023-04-24T11:42:07;4.97;;;3.97;;
74777;SDS011;63298;53.164;8.610;2023-04-24T11:44:34;4.30;;;3.90;;
74777;SDS011;63298;53.164;8.610;2023-04-24T11:46:59;4.78;;;4.25;;
74777;SDS011;63298;53.164;8.610;2023-04-24T11:49:25;4.85;;;3.20;;
74777;SDS011;63298;53.164;8.610;2023-04-24T11:51:50;4.00;;;3.60;;
74777;SDS011;63298;53.164;8.610;2023-04-24T11:54:20;4.13;;;3.30;;
74777;SDS011;63298;53.164;8.610;2023-04-24T11:56:49;5.40;;;4.38;;
74777;SDS011;63298;53.164;8.610;2023-04-24T11:59:14;4.15;;;3.75;;
74777;SDS011;63298;53.164;8.610;2023-04-24T12:01:46;3.75;;;2.90;;
74777;SDS011;63298;53.164;8.610;2023-04-24T12:04:12;3.10;;;2.67;;
74777;SDS011;63298;53.164;8.610;2023-04-24T12:06:38;2.58;;;1.85;;
74777;SDS011;63298;53.164;8.610;2023-04-24T12:09:03;2.20;;;2.00;;
74777;SDS011;63298;53.164;8.610;2023-04-24T12:11:29;1.90;;;1.80;;
74777;SDS011;63298;53.164;8.610;2023-04-24T12:13:54;1.67;;;1.58;;
74777;SDS011;63298;53.164;8.610;2023-04-24T12:16:20;2.72;;;2.22;;
74777;SDS011;63298;53.164;8.610;2023-04-24T12:18:45;2.28;;;2.08;;
74777;SDS011;63298;53.164;8.610;2023-04-24T12:21:16;1.90;;;1.80;;
74777;SDS011;63298;53.164;8.610;2023-04-24T12:23:45;1.70;;;1.60;;
74777;SDS011;63298;53.164;8.610;2023-04-24T12:26:10;2.00;;;1.80;;
74777;SDS011;63298;53.164;8.610;2023-04-24T12:28:36;2.17;;;2.05;;
74777;SDS011;63298;53.164;8.610;2023-04-24T12:31:02;1.90;;;1.80;;
74777;SDS011;63298;53.164;8.610;2023-04-24T12:33:28;1.83;;;1.73;;
74777;SDS011;63298;53.164;8.610;2023-04-24T12:35:58;1.98;;;1.80;;
74777;SDS011;63298;53.164;8.610;2023-04-24T12:38:25;2.13;;;1.83;;
74777;SDS011;63298;53.164;8.610;2023-04-24T12:41:04;2.22;;;2.13;;
74777;SDS011;63298;53.164;8.610;2023-04-24T12:43:31;2.00;;;1.90;;
74777;SDS011;63298;53.164;8.610;2023-04-24T12:45:57;1.80;;;1.60;;
74777;SDS011;63298;53.164;8.610;2023-04-24T12:48:22;1.63;;;1.52;;
74777;SDS011;63298;53.164;8.610;2023-04-24T12:50:47;2.40;;;1.30;;
74777;SDS011;63298;53.164;8.610;2023-04-24T12:53:13;2.08;;;1.60;;
74777;SDS011;63298;53.164;8.610;2023-04-24T12:55:39;3.30;;;2.38;;
74777;SDS011;63298;53.164;8.610;2023-04-24T12:58:05;2.70;;;2.30;;
74777;SDS011;63298;53.164;8.610;2023-04-24T13:00:30;6.68;;;2.88;;
74777;SDS011;63298;53.164;8.610;2023-04-24T13:02:55;4.18;;;3.22;;
74777;SDS011;63298;53.164;8.610;2023-04-24T13:05:20;5.72;;;3.70;;
74777;SDS011;63298;53.164;8.610;2023-04-24T13:07:46;10.20;;;4.72;;
74777;SDS011;63298;53.164;8.610;2023-04-24T13:10:11;9.97;;;4.60;;
74777;SDS011;63298;53.164;8.610;2023-04-24T13:12:36;11.10;;;5.82;;
74777;SDS011;63298;53.164;8.610;2023-04-24T13:15:02;14.00;;;5.65;;
74777;SDS011;63298;53.164;8.610;2023-04-24T13:17:27;8.07;;;5.03;;
74777;SDS011;63298;53.164;8.610;2023-04-24T13:19:53;8.13;;;4.78;;
74777;SDS011;63298;53.164;8.610;2023-04-24T13:22:19;7.15;;;4.05;;
74777;SDS011;63298;53.164;8.610;2023-04-24T13:24:45;5.88;;;4.22;;
74777;SDS011;63298;53.164;8.610;2023-04-24T13:27:11;8.82;;;4.40;;
74777;SDS011;63298;53.164;8.610;2023-04-24T13:29:36;5.22;;;3.42;;
74777;SDS011;63298;53.164;8.610;2023-04-24T13:32:02;7.50;;;3.70;;
74777;SDS011;63298;53.164;8.610;2023-04-24T13:34:28;5.72;;;3.22;;
74777;SDS011;63298;53.164;8.610;2023-04-24T13:36:53;5.57;;;3.20;;
74777;SDS011;63298;53.164;8.610;2023-04-24T13:39:20;6.47;;;3.15;;
74777;SDS011;63298;53.164;8.610;2023-04-24T13:41:46;12.50;;;3.50;;
74777;SDS011;63298;53.164;8.610;2023-04-24T13:44:11;5.85;;;3.40;;
74777;SDS011;63298;53.164;8.610;2023-04-24T13:46:36;9.15;;;3.38;;
74777;SDS011;63298;53.164;8.610;2023-04-24T13:49:02;4.90;;;3.50;;
74777;SDS011;63298;53.164;8.610;2023-04-24T13:51:27;5.63;;;3.72;;
74777;SDS011;63298;53.164;8.610;2023-04-24T13:53:53;9.25;;;3.65;;
74777;SDS011;63298;53.164;8.610;2023-04-24T13:56:19;7.28;;;2.85;;
74777;SDS011;63298;53.164;8.610;2023-04-24T13:58:44;9.50;;;3.08;;
74777;SDS011;63298;53.164;8.610;2023-04-24T14:01:10;3.13;;;2.75;;
74777;SDS011;63298;53.164;8.610;2023-04-24T14:03:36;7.60;;;3.78;;
74777;SDS011;63298;53.164;8.610;2023-04-24T14:06:02;5.15;;;2.72;;
74777;SDS011;63298;53.164;8.610;2023-04-24T14:08:27;10.57;;;3.50;;
74777;SDS011;63298;53.164;8.610;2023-04-24T14:10:53;9.90;;;3.67;;
74777;SDS011;63298;53.164;8.610;2023-04-24T14:13:18;6.03;;;2.50;;
74777;SDS011;63298;53.164;8.610;2023-04-24T14:15:44;10.15;;;3.20;;
74777;SDS011;63298;53.164;8.610;2023-04-24T14:18:10;5.22;;;2.30;;
74777;SDS011;63298;53.164;8.610;2023-04-24T14:20:35;5.10;;;2.33;;
74777;SDS011;63298;53.164;8.610;2023-04-24T14:23:00;5.90;;;2.17;;
74777;SDS011;63298;53.164;8.610;2023-04-24T14:25:26;6.00;;;2.47;;
74777;SDS011;63298;53.164;8.610;2023-04-24T14:27:51;7.75;;;2.50;;
74777;SDS011;63298;53.164;8.610;2023-04-24T14:30:17;7.40;;;2.30;;
74777;SDS011;63298;53.164;8.610;2023-04-24T14:32:43;6.15;;;2.40;;
74777;SDS011;63298;53.164;8.610;2023-04-24T14:35:08;5.15;;;2.03;;
74777;SDS011;63298;53.164;8.610;2023-04-24T14:37:34;5.00;;;2.50;;
74777;SDS011;63298;53.164;8.610;2023-04-24T14:39:59;4.75;;;2.53;;
74777;SDS011;63298;53.164;8.610;2023-04-24T14:42:24;12.30;;;2.67;;
74777;SDS011;63298;53.164;8.610;2023-04-24T14:44:50;10.27;;;2.90;;
74777;SDS011;63298;53.164;8.610;2023-04-24T14:47:16;5.03;;;2.42;;
74777;SDS011;63298;53.164;8.610;2023-04-24T14:49:41;4.78;;;3.13;;
74777;SDS011;63298;53.164;8.610;2023-04-24T14:52:06;6.93;;;2.88;;
74777;SDS011;63298;53.164;8.610;2023-04-24T14:54:32;4.70;;;2.35;;